createdAt,value
2018-03-17T00:00:34.755Z,96602.64
2018-03-17T00:03:02.275Z,96597.79
2018-03-17T00:05:29.810Z,96602.43
2018-03-17T00:07:58.137Z,96602.67
2018-03-17T00:10:25.820Z,96600.70
2018-03-17T00:12:53.550Z,96598.12
2018-03-17T00:15:21.792Z,96593.95
2018-03-17T00:17:49.585Z,96591.59
2018-03-17T00:20:17.134Z,96590.77
2018-03-17T00:22:45.021Z,96586.75
2018-03-17T00:25:12.762Z,96583.33
2018-03-17T00:27:40.477Z,96591.63
2018-03-17T00:30:08.464Z,96590.26
2018-03-17T00:32:36.263Z,96587.84
2018-03-17T00:35:04.233Z,96574.42
2018-03-17T00:37:32.730Z,96579.16
2018-03-17T00:40:00.310Z,96575.77
2018-03-17T00:42:28.158Z,96575.91
2018-03-17T00:44:55.739Z,96570.73
2018-03-17T00:47:23.381Z,96567.88
2018-03-17T00:49:50.985Z,96570.78
2018-03-17T00:52:18.766Z,96564.50
2018-03-17T00:54:46.279Z,96565.39
2018-03-17T00:57:13.895Z,96558.30
2018-03-17T00:59:41.641Z,96566.59
2018-03-17T01:02:09.251Z,96564.64
2018-03-17T01:04:36.925Z,96557.05
2018-03-17T01:07:04.654Z,96560.08
2018-03-17T01:09:32.365Z,96566.23
2018-03-17T01:11:59.996Z,96561.31
2018-03-17T01:14:27.536Z,96554.91
2018-03-17T01:16:55.241Z,96547.32
2018-03-17T01:19:22.976Z,96546.50
2018-03-17T01:21:50.522Z,96547.47
2018-03-17T01:24:18.044Z,96547.72
2018-03-17T01:26:45.606Z,96539.23
2018-03-17T01:29:13.742Z,96533.81
2018-03-17T01:31:41.426Z,96525.64
2018-03-17T01:34:09.104Z,96518.32
2018-03-17T01:36:36.800Z,96527.39
2018-03-17T01:39:04.326Z,96517.91
2018-03-17T01:41:31.930Z,96517.09
2018-03-17T01:43:59.576Z,96517.61
2018-03-17T01:46:27.216Z,96503.28
2018-03-17T01:48:54.795Z,96497.17
2018-03-17T01:51:22.339Z,96485.72
2018-03-17T01:53:49.881Z,96486.53
2018-03-17T01:56:17.391Z,96487.83
2018-03-17T01:58:45.139Z,96492.70
2018-03-17T02:01:12.735Z,96478.89
2018-03-17T02:03:40.716Z,96478.94
2018-03-17T02:06:08.380Z,96475.69
2018-03-17T02:08:36.085Z,96470.09
2018-03-17T02:11:04.575Z,96472.05
2018-03-17T02:13:32.316Z,96472.27
2018-03-17T02:15:59.963Z,96463.91
2018-03-17T02:18:27.497Z,96469.59
2018-03-17T02:20:55.370Z,96474.23
2018-03-17T02:23:23.011Z,96469.39
2018-03-17T02:25:50.546Z,96469.02
2018-03-17T02:28:18.085Z,96472.22
2018-03-17T02:30:45.771Z,96467.42
2018-03-17T02:33:13.292Z,96464.72
2018-03-17T02:35:40.960Z,96472.33
2018-03-17T02:38:08.494Z,96472.50
2018-03-17T02:40:36.160Z,96472.61
2018-03-17T02:43:03.880Z,96474.52
2018-03-17T02:45:31.583Z,96471.00
2018-03-17T02:47:59.261Z,96478.89
2018-03-17T02:50:26.886Z,96472.25
2018-03-17T02:52:54.693Z,96476.94
2018-03-17T02:55:22.273Z,96478.66
2018-03-17T02:57:49.860Z,96479.31
2018-03-17T03:00:17.515Z,96475.31
2018-03-17T03:02:46.020Z,96469.72
2018-03-17T03:05:14.253Z,96460.02
2018-03-17T03:07:42.353Z,96468.94
2018-03-17T03:10:10.121Z,96472.90
2018-03-17T03:12:37.815Z,96465.00
2018-03-17T03:15:05.616Z,96466.73
2018-03-17T03:17:33.266Z,96464.16
2018-03-17T03:20:00.810Z,96466.13
2018-03-17T03:22:28.345Z,96459.48
2018-03-17T03:24:56.016Z,96469.02
2018-03-17T03:27:23.627Z,96472.15
2018-03-17T03:29:51.379Z,96465.69
2018-03-17T03:32:18.910Z,96459.24
2018-03-17T03:34:46.761Z,96458.42
2018-03-17T03:37:14.607Z,96457.00
2018-03-17T03:39:42.247Z,96452.16
2018-03-17T03:42:09.884Z,96457.52
2018-03-17T03:44:37.583Z,96456.13
2018-03-17T03:47:05.267Z,96461.25
2018-03-17T03:49:32.800Z,96451.95
2018-03-17T03:52:00.335Z,96448.87
2018-03-17T03:54:27.866Z,96432.11
2018-03-17T03:56:55.425Z,96422.44
2018-03-17T03:59:23.172Z,96423.37
2018-03-17T04:01:50.991Z,96423.16
2018-03-17T04:04:18.596Z,96417.41
2018-03-17T04:06:46.217Z,96411.86
2018-03-17T04:09:13.785Z,96413.62
2018-03-17T04:11:41.311Z,96410.63
2018-03-17T04:14:09.536Z,96411.90
2018-03-17T04:16:37.211Z,96406.86
2018-03-17T04:19:04.907Z,96404.77
2018-03-17T04:21:32.484Z,96405.85
2018-03-17T04:24:00.075Z,96407.23
2018-03-17T04:26:27.682Z,96405.13
2018-03-17T04:28:55.240Z,96404.84
2018-03-17T04:31:22.936Z,96408.83
2018-03-17T04:33:50.735Z,96406.94
2018-03-17T04:36:18.566Z,96410.13
2018-03-17T04:38:46.311Z,96405.33
2018-03-17T04:41:13.847Z,96400.29
2018-03-17T04:43:41.445Z,96396.95
2018-03-17T04:46:09.355Z,96399.36
2018-03-17T04:48:37.092Z,96403.19
2018-03-17T04:51:04.620Z,96396.98
2018-03-17T04:53:32.251Z,96397.45
2018-03-17T04:55:59.840Z,96394.77
2018-03-17T04:58:27.354Z,96394.26
2018-03-17T05:00:54.898Z,96394.63
2018-03-17T05:03:22.775Z,96390.33
2018-03-17T05:05:50.449Z,96388.70
2018-03-17T05:08:18.200Z,96383.89
2018-03-17T05:10:45.857Z,96389.70
2018-03-17T05:13:13.554Z,96390.77
2018-03-17T05:15:41.081Z,96392.42
2018-03-17T05:18:09.162Z,96390.69
2018-03-17T05:20:36.696Z,96390.58
2018-03-17T05:23:04.230Z,96394.83
2018-03-17T05:25:32.039Z,96394.33
2018-03-17T05:27:59.551Z,96386.05
2018-03-17T05:30:27.324Z,96391.66
2018-03-17T05:32:54.876Z,96390.75
2018-03-17T05:35:22.485Z,96384.59
2018-03-17T05:37:50.204Z,96379.23
2018-03-17T05:40:17.745Z,96368.60
2018-03-17T05:42:45.336Z,96376.47
2018-03-17T05:45:13.142Z,96361.20
2018-03-17T05:47:40.641Z,96361.06
2018-03-17T05:50:08.239Z,96361.55
2018-03-17T05:52:35.842Z,96360.83
2018-03-17T05:55:03.475Z,96369.44
2018-03-17T05:57:31.024Z,96360.16
2018-03-17T05:59:58.676Z,96359.27
2018-03-17T06:02:26.207Z,96356.67
2018-03-17T06:04:53.791Z,96358.86
2018-03-17T06:07:21.426Z,96355.50
2018-03-17T06:09:48.976Z,96348.78
2018-03-17T06:12:16.774Z,96349.80
2018-03-17T06:14:44.307Z,96356.88
2018-03-17T06:17:11.852Z,96359.20
2018-03-17T06:19:39.375Z,96358.08
2018-03-17T06:22:06.934Z,96357.37
2018-03-17T06:24:34.475Z,96354.34
2018-03-17T06:27:02.060Z,96354.94
2018-03-17T06:29:29.620Z,96348.01
2018-03-17T06:31:57.431Z,96353.64
2018-03-17T06:34:24.960Z,96355.02
2018-03-17T06:36:52.586Z,96358.98
2018-03-17T06:39:20.114Z,96352.70
2018-03-17T06:41:47.658Z,96357.33
2018-03-17T06:44:15.221Z,96359.63
2018-03-17T06:46:42.801Z,96362.89
2018-03-17T06:49:10.481Z,96363.84
2018-03-17T06:51:38.036Z,96355.81
2018-03-17T06:54:05.707Z,96355.59
2018-03-17T06:56:33.289Z,96350.72
2018-03-17T06:59:00.901Z,96352.36
2018-03-17T07:01:28.480Z,96352.76
2018-03-17T07:03:56.036Z,96345.45
2018-03-17T07:06:23.675Z,96347.45
2018-03-17T07:08:51.209Z,96354.72
2018-03-17T07:11:18.774Z,96355.62
2018-03-17T07:13:46.507Z,96354.28
2018-03-17T07:16:14.341Z,96349.27
2018-03-17T07:18:42.071Z,96347.32
2018-03-17T07:21:09.689Z,96352.66
2018-03-17T07:23:37.451Z,96350.84
2018-03-17T07:26:05.131Z,96343.67
2018-03-17T07:28:32.762Z,96342.70
2018-03-17T07:31:00.449Z,96341.98
2018-03-17T07:33:27.978Z,96345.43
2018-03-17T07:35:55.636Z,96340.35
2018-03-17T07:38:23.212Z,96333.55
2018-03-17T07:40:51.014Z,96337.26
2018-03-17T07:43:18.721Z,96336.13
2018-03-17T07:45:46.251Z,96333.61
2018-03-17T07:48:14.048Z,96329.73
2018-03-17T07:50:41.686Z,96330.95
2018-03-17T07:53:09.761Z,96329.72
2018-03-17T07:55:37.302Z,96324.92
2018-03-17T07:58:05.094Z,96322.20
2018-03-17T08:00:32.745Z,96315.65
2018-03-17T08:03:00.372Z,96312.16
2018-03-17T08:05:27.970Z,96317.98
2018-03-17T08:07:55.522Z,96315.52
2018-03-17T08:10:23.387Z,96316.12
2018-03-17T08:12:51.057Z,96307.83
2018-03-17T08:15:19.022Z,96304.33
2018-03-17T08:17:46.545Z,96306.70
2018-03-17T08:20:14.181Z,96305.78
2018-03-17T08:22:42.298Z,96304.75
2018-03-17T08:25:09.991Z,96299.57
2018-03-17T08:27:37.629Z,96301.83
2018-03-17T08:30:06.112Z,96296.08
2018-03-17T08:32:33.776Z,96299.27
2018-03-17T08:35:01.345Z,96286.45
2018-03-17T08:37:28.977Z,96291.59
2018-03-17T08:39:56.556Z,96287.61
2018-03-17T08:42:24.406Z,96283.52
2018-03-17T08:44:52.092Z,96281.05
2018-03-17T08:47:19.716Z,96280.77
2018-03-17T08:49:47.521Z,96278.05
2018-03-17T08:52:20.288Z,96272.89
2018-03-17T08:54:48.071Z,96274.29
2018-03-17T08:57:15.658Z,96279.02
2018-03-17T08:59:43.557Z,96277.06
2018-03-17T09:02:11.227Z,96278.23
2018-03-17T09:04:38.952Z,96274.25
2018-03-17T09:07:06.500Z,96278.41
2018-03-17T09:09:35.116Z,96277.90
2018-03-17T09:12:02.655Z,96276.77
2018-03-17T09:14:30.278Z,96276.66
2018-03-17T09:16:57.817Z,96267.23
2018-03-17T09:19:25.400Z,96274.00
2018-03-17T09:21:53.172Z,96274.19
2018-03-17T09:24:20.765Z,96267.28
2018-03-17T09:26:49.142Z,96271.08
2018-03-17T09:29:16.758Z,96266.53
2018-03-17T09:31:44.293Z,96268.63
2018-03-17T09:34:11.991Z,96267.94
2018-03-17T09:36:39.598Z,96271.98
2018-03-17T09:39:07.309Z,96268.29
2018-03-17T09:41:35.262Z,96265.21
2018-03-17T09:44:02.830Z,96261.06
2018-03-17T09:46:30.496Z,96261.44
2018-03-17T09:48:58.261Z,96258.52
2018-03-17T09:51:26.737Z,96256.94
2018-03-17T09:53:54.420Z,96251.82
2018-03-17T09:56:22.076Z,96254.70
2018-03-17T09:58:49.830Z,96243.02
2018-03-17T10:01:17.437Z,96245.54
2018-03-17T10:03:45.595Z,96244.20
2018-03-17T10:06:13.177Z,96250.31
2018-03-17T10:08:40.776Z,96244.03
2018-03-17T10:11:09.131Z,96245.13
2018-03-17T10:13:36.681Z,96240.27
2018-03-17T10:16:04.377Z,96236.67
2018-03-17T10:18:31.977Z,96234.08
2018-03-17T10:20:59.598Z,96232.40
2018-03-17T10:23:27.393Z,96229.05
2018-03-17T10:25:55.115Z,96232.19
2018-03-17T10:28:22.867Z,96235.70
2018-03-17T10:30:50.448Z,96226.52
2018-03-17T10:33:17.988Z,96218.48
2018-03-17T10:35:45.657Z,96226.78
2018-03-17T10:38:13.212Z,96226.33
2018-03-17T10:40:40.837Z,96227.89
2018-03-17T10:43:08.591Z,96230.77
2018-03-17T10:45:36.274Z,96225.97
2018-03-17T10:48:04.006Z,96226.09
2018-03-17T10:50:31.593Z,96231.86
2018-03-17T10:52:59.342Z,96219.27
2018-03-17T10:55:27.035Z,96221.84
2018-03-17T10:57:54.576Z,96214.36
2018-03-17T11:00:27.673Z,96212.76
2018-03-17T11:02:55.246Z,96213.84
2018-03-17T11:05:23.513Z,96215.57
2018-03-17T11:07:52.002Z,96220.42
2018-03-17T11:10:20.145Z,96221.55
2018-03-17T11:12:47.768Z,96218.34
2018-03-17T11:15:15.526Z,96215.70
2018-03-17T11:17:43.087Z,96222.96
2018-03-17T11:20:10.710Z,96230.47
2018-03-17T11:22:38.373Z,96221.91
2018-03-17T11:25:06.082Z,96219.22
2018-03-17T11:27:33.736Z,96219.26
2018-03-17T11:30:01.557Z,96222.47
2018-03-17T11:32:29.242Z,96218.34
2018-03-17T11:34:56.957Z,96214.86
2018-03-17T11:37:24.575Z,96211.38
2018-03-17T11:39:52.250Z,96208.30
2018-03-17T11:42:19.775Z,96208.56
2018-03-17T11:44:47.447Z,96200.46
2018-03-17T11:47:15.080Z,96204.97
2018-03-17T11:49:42.778Z,96198.70
2018-03-17T11:52:10.514Z,96201.19
2018-03-17T11:54:38.236Z,96194.69
2018-03-17T11:57:05.995Z,96187.77
2018-03-17T11:59:33.602Z,96190.70
2018-03-17T12:02:01.207Z,96180.95
2018-03-17T12:04:28.858Z,96184.03
2018-03-17T12:06:56.693Z,96173.37
2018-03-17T12:09:24.245Z,96174.58
2018-03-17T12:11:51.991Z,96168.91
2018-03-17T12:14:19.680Z,96163.64
2018-03-17T12:16:47.366Z,96165.40
2018-03-17T12:19:14.906Z,96155.98
2018-03-17T12:21:42.551Z,96158.34
2018-03-17T12:24:10.146Z,96158.39
2018-03-17T12:26:37.826Z,96162.05
2018-03-17T12:29:05.578Z,96157.52
2018-03-17T12:31:33.216Z,96156.38
2018-03-17T12:34:00.772Z,96155.12
2018-03-17T12:36:28.527Z,96145.42
2018-03-17T12:38:56.148Z,96143.33
2018-03-17T12:41:24.071Z,96145.83
2018-03-17T12:43:51.608Z,96145.47
2018-03-17T12:46:19.163Z,96147.17
2018-03-17T12:48:46.757Z,96149.86
2018-03-17T12:51:14.696Z,96145.70
2018-03-17T12:53:42.333Z,96145.88
2018-03-17T12:56:09.908Z,96144.05
2018-03-17T12:58:38.068Z,96141.26
2018-03-17T13:01:05.811Z,96143.81
2018-03-17T13:03:33.520Z,96137.58
2018-03-17T13:06:01.196Z,96132.66
2018-03-17T13:08:28.751Z,96134.59
2018-03-17T13:10:56.454Z,96138.56
2018-03-17T13:13:24.766Z,96136.55
2018-03-17T13:15:52.338Z,96134.67
2018-03-17T13:18:20.106Z,96124.67
2018-03-17T13:20:47.880Z,96120.12
2018-03-17T13:23:16.320Z,96130.89
2018-03-17T13:25:43.912Z,96134.11
2018-03-17T13:28:26.884Z,96145.81
2018-03-17T13:30:54.663Z,96141.80
2018-03-17T13:33:22.721Z,96138.91
2018-03-17T13:36:02.502Z,96142.53
2018-03-17T13:38:30.064Z,96143.45
2018-03-17T13:40:57.623Z,96140.34
2018-03-17T13:43:26.256Z,96137.28
2018-03-17T13:45:55.011Z,96137.34
2018-03-17T13:48:22.661Z,96141.12
2018-03-17T13:50:50.305Z,96137.27
2018-03-17T13:53:17.911Z,96138.91
2018-03-17T13:55:45.571Z,96138.77
2018-03-17T13:58:13.336Z,96135.73
2018-03-17T14:00:42.892Z,96133.75
2018-03-17T14:03:11.499Z,96139.50
2018-03-17T14:05:39.271Z,96137.34
2018-03-17T14:08:07.139Z,96137.08
2018-03-17T14:10:34.785Z,96144.27
2018-03-17T14:13:02.375Z,96143.71
2018-03-17T14:15:30.035Z,96138.05
2018-03-17T14:17:57.724Z,96144.56
2018-03-17T14:20:25.493Z,96142.94
2018-03-17T14:22:53.197Z,96150.50
2018-03-17T14:25:20.760Z,96145.64
2018-03-17T14:27:48.439Z,96142.41
2018-03-17T14:30:16.239Z,96141.58
2018-03-17T14:32:43.837Z,96145.39
2018-03-17T14:35:11.747Z,96144.45
2018-03-17T14:37:39.414Z,96136.20
2018-03-17T14:40:07.112Z,96139.19
2018-03-17T14:42:34.821Z,96151.13
2018-03-17T14:45:02.457Z,96143.48
2018-03-17T14:47:30.200Z,96149.95
2018-03-17T14:49:58.600Z,96140.69
2018-03-17T14:52:26.330Z,96145.70
2018-03-17T14:54:53.880Z,96149.15
2018-03-17T14:57:21.452Z,96143.53
2018-03-17T14:59:49.227Z,96140.03
2018-03-17T15:02:16.880Z,96143.05
2018-03-17T15:04:44.598Z,96147.52
2018-03-17T15:07:12.228Z,96140.12
2018-03-17T15:09:39.844Z,96149.67
2018-03-17T15:12:07.556Z,96141.86
2018-03-17T15:14:35.172Z,96147.00
2018-03-17T15:17:02.978Z,96148.77
2018-03-17T15:19:30.651Z,96149.48
2018-03-17T15:21:58.492Z,96154.13
2018-03-17T15:24:26.081Z,96152.62
2018-03-17T15:26:53.897Z,96150.24
2018-03-17T15:29:21.532Z,96161.84
2018-03-17T15:31:49.192Z,96151.34
2018-03-17T15:34:16.786Z,96152.02
2018-03-17T15:36:44.586Z,96157.20
2018-03-17T15:39:12.473Z,96148.00
2018-03-17T15:41:40.023Z,96146.93
2018-03-17T15:44:07.596Z,96146.89
2018-03-17T15:46:35.157Z,96147.33
2018-03-17T15:49:06.710Z,96144.96
2018-03-17T15:51:34.371Z,96144.96
2018-03-17T15:54:02.091Z,96140.83
2018-03-17T15:56:29.755Z,96142.07
2018-03-17T15:58:57.466Z,96138.95
2018-03-17T16:01:25.025Z,96138.92
2018-03-17T16:03:52.670Z,96135.17
2018-03-17T16:06:21.040Z,96138.09
2018-03-17T16:08:48.701Z,96137.95
2018-03-17T16:11:16.236Z,96145.09
2018-03-17T16:13:43.806Z,96145.38
2018-03-17T16:16:11.459Z,96142.72
2018-03-17T16:18:39.030Z,96144.67
2018-03-17T16:21:06.856Z,96143.11
2018-03-17T16:23:34.446Z,96151.17
2018-03-17T16:26:02.213Z,96145.88
2018-03-17T16:28:29.893Z,96158.21
2018-03-17T16:30:57.568Z,96152.04
2018-03-17T16:33:25.222Z,96155.05
2018-03-17T16:35:52.791Z,96157.23
2018-03-17T16:38:20.337Z,96160.34
2018-03-17T16:40:48.040Z,96174.55
2018-03-17T16:43:15.591Z,96174.19
2018-03-17T16:45:43.120Z,96182.50
2018-03-17T16:48:10.721Z,96190.06
2018-03-17T16:50:38.618Z,96186.12
2018-03-17T16:53:06.362Z,96185.97
2018-03-17T16:55:34.002Z,96185.17
2018-03-17T16:58:01.616Z,96191.12
2018-03-17T17:00:29.192Z,96194.27
2018-03-17T17:02:56.745Z,96196.88
2018-03-17T17:05:24.336Z,96196.83
2018-03-17T17:07:51.999Z,96201.50
2018-03-17T17:10:19.566Z,96206.62
2018-03-17T17:12:47.276Z,96205.23
2018-03-17T17:15:14.866Z,96209.11
2018-03-17T17:17:42.525Z,96208.76
2018-03-17T17:20:10.251Z,96212.91
2018-03-17T17:22:37.965Z,96216.38
2018-03-17T17:25:05.739Z,96217.41
2018-03-17T17:27:33.315Z,96221.22
2018-03-17T17:30:01.141Z,96219.56
2018-03-17T17:32:28.745Z,96223.36
2018-03-17T17:34:56.336Z,96229.14
2018-03-17T17:37:25.557Z,96228.13
2018-03-17T17:39:53.105Z,96232.17
2018-03-17T17:42:20.716Z,96230.19
2018-03-17T17:44:48.281Z,96233.46
2018-03-17T17:47:16.075Z,96224.00
2018-03-17T17:49:43.682Z,96232.00
2018-03-17T17:52:11.461Z,96242.98
2018-03-17T17:54:39.040Z,96243.67
2018-03-17T17:57:06.785Z,96237.38
2018-03-17T17:59:34.455Z,96240.56
2018-03-17T18:02:02.052Z,96242.94
2018-03-17T18:04:29.802Z,96247.13
2018-03-17T18:06:58.044Z,96249.41
2018-03-17T18:09:25.833Z,96246.75
2018-03-17T18:11:53.516Z,96247.95
2018-03-17T18:14:21.138Z,96247.70
2018-03-17T18:16:49.131Z,96242.16
2018-03-17T18:19:16.676Z,96245.66
2018-03-17T18:21:44.280Z,96245.88
2018-03-17T18:24:11.841Z,96252.31
2018-03-17T18:26:39.581Z,96253.53
2018-03-17T18:29:07.140Z,96250.90
2018-03-17T18:31:34.727Z,96257.63
2018-03-17T18:34:02.293Z,96257.30
2018-03-17T18:36:30.952Z,96260.32
2018-03-17T18:38:58.720Z,96258.37
2018-03-17T18:41:26.275Z,96257.73
2018-03-17T18:43:53.872Z,96261.45
2018-03-17T18:46:21.613Z,96261.43
2018-03-17T18:48:50.027Z,96252.20
2018-03-17T18:51:17.898Z,96258.16
2018-03-17T18:53:45.570Z,96257.20
2018-03-17T18:56:13.122Z,96257.37
2018-03-17T18:58:40.787Z,96259.16
2018-03-17T19:01:08.371Z,96258.89
2018-03-17T19:03:36.181Z,96263.76
2018-03-17T19:06:03.753Z,96266.03
2018-03-17T19:08:31.473Z,96271.74
2018-03-17T19:10:59.015Z,96272.27
2018-03-17T19:13:26.575Z,96261.50
2018-03-17T19:15:54.235Z,96273.88
2018-03-17T19:18:21.912Z,96273.31
2018-03-17T19:20:49.520Z,96275.55
2018-03-17T19:23:17.217Z,96284.70
2018-03-17T19:25:44.751Z,96283.45
2018-03-17T19:28:12.309Z,96281.02
2018-03-17T19:30:40.005Z,96281.74
2018-03-17T19:33:07.557Z,96285.52
2018-03-17T19:35:35.195Z,96285.84
2018-03-17T19:38:02.861Z,96288.13
2018-03-17T19:40:30.480Z,96288.61
2018-03-17T19:42:58.301Z,96291.78
2018-03-17T19:45:26.016Z,96293.46
2018-03-17T19:47:53.736Z,96297.16
2018-03-17T19:50:21.594Z,96299.38
2018-03-17T19:52:49.362Z,96298.47
2018-03-17T19:55:17.130Z,96302.31
2018-03-17T19:57:44.961Z,96294.48
2018-03-17T20:00:12.705Z,96295.05
2018-03-17T20:02:40.430Z,96299.02
2018-03-17T20:05:08.416Z,96306.56
2018-03-17T20:07:36.141Z,96313.11
2018-03-17T20:10:03.796Z,96303.48
2018-03-17T20:12:31.387Z,96304.92
2018-03-17T20:14:59.026Z,96303.55
2018-03-17T20:17:26.797Z,96302.95
2018-03-17T20:19:54.541Z,96302.64
2018-03-17T20:22:22.277Z,96305.62
2018-03-17T20:24:50.172Z,96307.62
2018-03-17T20:27:17.882Z,96306.59
2018-03-17T20:29:45.451Z,96308.61
2018-03-17T20:32:13.048Z,96306.67
2018-03-17T20:34:40.916Z,96313.89
2018-03-17T20:37:08.536Z,96313.91
2018-03-17T20:39:36.135Z,96310.41
2018-03-17T20:42:03.812Z,96310.65
2018-03-17T20:44:31.681Z,96317.28
2018-03-17T20:46:59.235Z,96322.66
2018-03-17T20:49:26.847Z,96318.42
2018-03-17T20:51:54.586Z,96324.44
2018-03-17T20:54:22.295Z,96317.33
2018-03-17T20:56:49.961Z,96320.13
2018-03-17T20:59:17.884Z,96333.67
2018-03-17T21:01:45.518Z,96327.37
2018-03-17T21:04:13.368Z,96328.59
2018-03-17T21:06:41.271Z,96330.22
2018-03-17T21:09:08.981Z,96329.53
2018-03-17T21:11:37.260Z,96328.11
2018-03-17T21:14:05.015Z,96331.55
2018-03-17T21:16:35.243Z,96329.63
2018-03-17T21:19:03.167Z,96343.77
2018-03-17T21:21:30.771Z,96338.03
2018-03-17T21:23:58.349Z,96337.69
2018-03-17T21:26:26.122Z,96346.72
2018-03-17T21:28:53.796Z,96336.80
2018-03-17T21:31:22.371Z,96342.19
2018-03-17T21:33:50.141Z,96337.69
2018-03-17T21:36:17.775Z,96345.95
2018-03-17T21:38:45.351Z,96350.27
2018-03-17T21:41:13.122Z,96344.22
2018-03-17T21:43:40.978Z,96346.16
2018-03-17T21:46:08.657Z,96350.07
2018-03-17T21:48:36.281Z,96349.36
2018-03-17T21:51:03.931Z,96354.77
2018-03-17T21:53:31.592Z,96357.53
2018-03-17T21:55:59.270Z,96358.45
2018-03-17T21:58:26.835Z,96362.81
2018-03-17T22:00:54.933Z,96362.14
2018-03-17T22:03:22.834Z,96359.77
2018-03-17T22:05:50.801Z,96361.11
2018-03-17T22:08:18.560Z,96360.67
2018-03-17T22:10:46.333Z,96366.49
2018-03-17T22:13:13.977Z,96366.34
2018-03-17T22:15:41.936Z,96357.77
2018-03-17T22:18:09.954Z,96357.84
2018-03-17T22:20:37.517Z,96358.76
2018-03-17T22:23:05.230Z,96363.06
2018-03-17T22:25:32.941Z,96360.78
2018-03-17T22:28:00.560Z,96362.20
2018-03-17T22:30:28.111Z,96364.76
2018-03-17T22:32:55.890Z,96370.02
2018-03-17T22:35:23.562Z,96367.52
2018-03-17T22:37:52.691Z,96369.17
2018-03-17T22:40:20.351Z,96375.05
2018-03-17T22:42:48.521Z,96375.45
2018-03-17T22:45:16.216Z,96380.41
2018-03-17T22:47:43.835Z,96385.60
2018-03-17T22:50:11.735Z,96383.19
2018-03-17T22:52:39.373Z,96386.24
2018-03-17T22:55:07.639Z,96382.73
2018-03-17T22:57:35.252Z,96378.22
2018-03-17T23:00:02.946Z,96382.95
2018-03-17T23:02:30.737Z,96379.56
2018-03-17T23:04:58.639Z,96382.56
2018-03-17T23:07:26.244Z,96384.06
2018-03-17T23:09:53.810Z,96388.27
2018-03-17T23:12:21.888Z,96378.05
2018-03-17T23:14:49.657Z,96390.64
2018-03-17T23:17:17.485Z,96384.97
2018-03-17T23:19:45.117Z,96392.56
2018-03-17T23:22:12.839Z,96383.96
2018-03-17T23:24:40.672Z,96385.16
2018-03-17T23:27:08.252Z,96390.19
2018-03-17T23:29:36.855Z,96390.56
2018-03-17T23:32:04.422Z,96384.85
2018-03-17T23:34:31.987Z,96387.29
2018-03-17T23:37:00.441Z,96390.80
2018-03-17T23:39:28.021Z,96394.34
2018-03-17T23:41:55.735Z,96386.41
2018-03-17T23:44:23.534Z,96395.71
2018-03-17T23:46:51.210Z,96392.53
2018-03-17T23:49:19.070Z,96398.09
2018-03-17T23:51:47.426Z,96390.97
2018-03-17T23:54:15.203Z,96401.61
2018-03-17T23:56:42.854Z,96396.83
2018-03-17T23:59:10.732Z,96396.95
